Impacts TAF Board
For situational awareness. Not to be used for flight planning purposes.
IDs:

KPIT - Pittsburgh Intl, PA, US

Issued at 1122 UTC 21 Feb 2019
Updated at 1413 UTC 21 Feb 2019
Potential Impact None Slight Moderate High
Time<<22/15Z 22/16Z 22/17Z 22/18Z 22/19Z 22/20Z 22/21Z 22/22Z 22/23Z 23/00Z 23/01Z 23/02Z 23/03Z
Type PRVL PRVL PRVL
VIS >6 >6 >6
CIG 250 250 250
Cover BKN BKN BKN
FltCat VFR VFR VFR
WX -- -- --
WDir 280 280 280
WSpd 6 6 6
WGst -- -- --
Raw TAF
KPIT 211122Z 2112/2218 26009G17KT P6SM BKN025
  FM211600 26010G20KT P6SM BKN250
  FM220200 28006KT P6SM BKN250


METAR Board
Radar Display
Forecast Discussion
For situational awareness. Not to be used for flight planning purposes.